Time;durP1;ratioP1;P1;durP2;ratioP2;P2;SDS_P1;SDS_P2;PMS_P1;PMS_P2;Temp;Humidity;BMP_temperature;BMP_pressure;BME280_temperature;BME280_humidity;BME280_pressure;Samples;Min_cycle;Max_cycle;Signal;HPM_P1;HPM_P2
2023/06/27 00:02:02;;;;;;;3.00;2.80;;;18.50;1.00;;;;;;4939279;28;20498;-73
2023/06/27 00:04:29;;;;;;;4.00;2.63;;;18.50;1.00;;;;;;4937274;28;20501;-74
2023/06/27 00:06:58;;;;;;;3.07;2.63;;;18.50;1.00;;;;;;4938704;28;20526;-74
2023/06/27 00:09:26;;;;;;;4.30;2.43;;;18.40;1.00;;;;;;4934653;28;20959;-74
2023/06/27 00:11:53;;;;;;;3.33;2.83;;;18.30;1.00;;;;;;4933943;28;20857;-74
2023/06/27 00:14:21;;;;;;;4.77;3.13;;;18.30;1.00;;;;;;4934156;28;20548;-74
2023/06/27 00:16:49;;;;;;;3.80;2.80;;;18.30;1.00;;;;;;4931511;28;20850;-74
2023/06/27 00:19:16;;;;;;;5.50;3.33;;;18.20;1.00;;;;;;4932574;28;20462;-73
2023/06/27 00:21:43;;;;;;;2.67;2.47;;;18.20;1.00;;;;;;4940029;28;20457;-74
2023/06/27 00:24:11;;;;;;;4.17;3.40;;;18.10;1.00;;;;;;4932347;28;20472;-74
2023/06/27 00:26:38;;;;;;;3.17;2.77;;;18.10;1.00;;;;;;4931741;28;20970;-74
2023/06/27 00:29:06;;;;;;;3.30;2.53;;;18.00;1.00;;;;;;4937045;28;20465;-74
2023/06/27 00:31:33;;;;;;;6.27;2.83;;;18.00;1.00;;;;;;4934758;28;20468;-74
2023/06/27 00:34:00;;;;;;;4.30;3.13;;;18.00;1.00;;;;;;4937703;28;20438;-73
2023/06/27 00:36:27;;;;;;;5.27;2.90;;;17.90;1.00;;;;;;4936730;28;20557;-73
2023/06/27 00:38:54;;;;;;;3.93;3.23;;;17.90;1.00;;;;;;4933628;28;20484;-74
2023/06/27 00:41:22;;;;;;;5.60;3.03;;;17.90;1.00;;;;;;4939556;28;21004;-74
2023/06/27 00:43:49;;;;;;;5.73;3.50;;;17.90;1.00;;;;;;4942915;28;21015;-73
2023/06/27 00:46:24;;;;;;;3.87;3.10;;;17.90;1.00;;;;;;4943454;28;20485;-74
2023/06/27 00:48:51;;;;;;;6.73;3.40;;;17.90;1.00;;;;;;4943859;28;21029;-74
2023/06/27 00:51:18;;;;;;;5.37;3.10;;;17.90;1.00;;;;;;4945675;28;20954;-74
2023/06/27 00:53:45;;;;;;;8.23;3.37;;;17.80;1.00;;;;;;4944078;28;20480;-75
2023/06/27 00:56:12;;;;;;;3.60;2.93;;;17.80;1.00;;;;;;4945776;28;20464;-74
2023/06/27 00:58:41;;;;;;;3.43;3.07;;;17.70;1.00;;;;;;4946836;28;20467;-73
2023/06/27 01:01:07;;;;;;;3.57;2.93;;;17.70;1.00;;;;;;4943064;28;20548;-74
2023/06/27 01:03:34;;;;;;;5.87;2.93;;;17.70;1.00;;;;;;4965546;23;20589;-71
2023/06/27 01:06:07;;;;;;;4.80;3.00;;;17.60;1.00;;;;;;4959848;28;20521;-71
2023/06/27 01:08:41;;;;;;;3.53;2.50;;;17.60;1.00;;;;;;4958787;28;20463;-71
2023/06/27 01:11:16;;;;;;;4.90;2.70;;;17.60;1.00;;;;;;4954276;28;20466;-71
2023/06/27 01:13:50;;;;;;;5.30;3.03;;;17.50;1.00;;;;;;4962673;28;21054;-71
2023/06/27 01:16:19;;;;;;;5.53;3.07;;;17.50;1.00;;;;;;4958065;28;20473;-71
2023/06/27 01:18:47;;;;;;;7.63;3.87;;;17.40;1.00;;;;;;4957845;28;20475;-71
2023/06/27 01:21:17;;;;;;;5.43;3.97;;;17.40;1.00;;;;;;4955595;28;20456;-71
2023/06/27 01:23:52;;;;;;;5.80;3.67;;;17.30;1.00;;;;;;4956299;28;20537;-71
2023/06/27 01:26:19;;;;;;;5.50;3.40;;;17.30;1.00;;;;;;4951803;28;20562;-72
2023/06/27 01:28:46;;;;;;;4.30;3.30;;;17.30;1.00;;;;;;4953053;28;20817;-71
2023/06/27 01:31:21;;;;;;;5.93;4.30;;;17.20;1.00;;;;;;4954120;28;20491;-71
2023/06/27 01:34:03;;;;;;;5.93;3.73;;;17.20;1.00;;;;;;4962319;28;20956;-71
2023/06/27 01:36:38;;;;;;;5.40;3.97;;;17.10;1.00;;;;;;4968145;28;20459;-71
2023/06/27 01:39:11;;;;;;;4.27;3.27;;;17.10;1.00;;;;;;4958446;28;20909;-71
2023/06/27 01:41:41;;;;;;;6.03;3.70;;;17.00;1.00;;;;;;4963523;28;21065;-71
2023/06/27 01:44:13;;;;;;;4.87;3.73;;;17.00;1.00;;;;;;4958631;28;20480;-70
2023/06/27 01:46:41;;;;;;;4.90;3.90;;;16.90;1.00;;;;;;4955932;28;20500;-70
2023/06/27 01:49:09;;;;;;;5.70;4.00;;;16.90;1.00;;;;;;4957502;28;20952;-70
2023/06/27 01:51:36;;;;;;;8.00;4.37;;;16.90;1.00;;;;;;4965703;28;20551;-71
2023/06/27 01:54:04;;;;;;;6.27;3.40;;;16.90;1.00;;;;;;4958887;28;20491;-70
2023/06/27 01:56:32;;;;;;;6.23;3.70;;;16.80;1.00;;;;;;4953950;28;20546;-71
2023/06/27 01:58:59;;;;;;;8.03;3.77;;;16.80;1.00;;;;;;4954315;28;20468;-70
2023/06/27 02:01:26;;;;;;;7.40;3.77;;;16.80;1.00;;;;;;4954066;28;20473;-71
2023/06/27 02:03:53;;;;;;;6.43;3.97;;;16.80;1.00;;;;;;4961751;28;20571;-71
2023/06/27 02:06:20;;;;;;;6.30;3.80;;;16.80;1.00;;;;;;4963357;28;20460;-71
2023/06/27 02:08:48;;;;;;;8.80;4.60;;;16.80;1.00;;;;;;4961693;28;20487;-71
2023/06/27 02:11:15;;;;;;;6.10;4.00;;;16.80;1.00;;;;;;4964825;28;20467;-70
2023/06/27 02:13:43;;;;;;;4.40;3.40;;;16.80;1.00;;;;;;4963086;28;20488;-70
2023/06/27 02:16:11;;;;;;;9.03;4.23;;;16.80;1.00;;;;;;4963359;28;20970;-70
2023/06/27 02:18:38;;;;;;;5.90;4.00;;;16.80;1.00;;;;;;4958901;28;20461;-70
2023/06/27 02:21:05;;;;;;;9.43;3.90;;;16.80;1.00;;;;;;4966325;28;20457;-70
2023/06/27 02:23:32;;;;;;;7.23;4.70;;;16.70;1.00;;;;;;4961566;28;20515;-71
2023/06/27 02:25:59;;;;;;;4.93;4.03;;;16.80;1.00;;;;;;4961220;28;21107;-71
2023/06/27 02:28:26;;;;;;;6.80;4.27;;;16.80;1.00;;;;;;4964336;28;20956;-70
2023/06/27 02:30:54;;;;;;;8.87;3.87;;;16.70;1.00;;;;;;4964221;28;20465;-71
2023/06/27 02:33:21;;;;;;;5.60;4.40;;;16.70;1.00;;;;;;4962620;28;20562;-70
2023/06/27 02:35:50;;;;;;;6.70;4.20;;;16.70;1.00;;;;;;4954775;28;20483;-70
2023/06/27 02:38:17;;;;;;;7.93;4.10;;;16.70;1.00;;;;;;4952800;28;20472;-71
2023/06/27 02:40:44;;;;;;;5.90;4.37;;;16.70;1.00;;;;;;4958134;28;20597;-70
2023/06/27 02:43:11;;;;;;;7.43;4.10;;;16.80;1.00;;;;;;4963880;28;20477;-70
2023/06/27 02:45:38;;;;;;;5.83;5.17;;;16.70;1.00;;;;;;4959464;28;20560;-71
2023/06/27 02:48:08;;;;;;;7.93;4.60;;;16.70;1.00;;;;;;4946533;28;20472;-72
2023/06/27 02:50:35;;;;;;;5.93;4.57;;;16.70;1.00;;;;;;4954915;28;20569;-71
2023/06/27 02:53:02;;;;;;;8.43;5.20;;;16.70;1.00;;;;;;4957818;28;20475;-71
2023/06/27 02:55:29;;;;;;;5.63;4.03;;;16.70;1.00;;;;;;4959322;28;20464;-71
2023/06/27 02:57:56;;;;;;;5.83;4.63;;;16.60;1.00;;;;;;4953935;28;20524;-71
2023/06/27 03:00:23;;;;;;;7.83;5.17;;;16.60;1.00;;;;;;4953749;28;20998;-71
2023/06/27 03:02:50;;;;;;;5.00;4.50;;;16.60;1.00;;;;;;4952268;28;20487;-72
2023/06/27 03:05:18;;;;;;;9.77;4.83;;;16.60;1.00;;;;;;4957281;28;20642;-70
2023/06/27 03:07:45;;;;;;;6.53;4.70;;;16.60;1.00;;;;;;4960252;28;20841;-71
2023/06/27 03:10:12;;;;;;;9.50;5.03;;;16.60;1.00;;;;;;4958369;28;20500;-71
2023/06/27 03:12:39;;;;;;;6.23;4.20;;;16.50;1.00;;;;;;4965380;28;20496;-71
2023/06/27 03:15:08;;;;;;;7.70;4.80;;;16.50;1.00;;;;;;4958285;28;20476;-70
2023/06/27 03:17:35;;;;;;;10.07;4.70;;;16.40;1.00;;;;;;4956749;28;20543;-71
2023/06/27 03:20:03;;;;;;;9.47;4.30;;;16.40;1.00;;;;;;4957968;28;20451;-70
2023/06/27 03:22:31;;;;;;;9.73;4.90;;;16.40;1.00;;;;;;4961062;28;20958;-71
2023/06/27 03:24:58;;;;;;;7.70;4.50;;;16.40;1.00;;;;;;4956407;28;20536;-70
2023/06/27 03:27:26;;;;;;;11.40;5.53;;;16.40;1.00;;;;;;4954109;28;20568;-71
2023/06/27 03:29:53;;;;;;;7.17;5.27;;;16.40;1.00;;;;;;4958087;28;20925;-71
2023/06/27 03:32:20;;;;;;;7.83;4.30;;;16.40;1.00;;;;;;4954312;28;20495;-71
2023/06/27 03:34:48;;;;;;;10.17;4.80;;;16.30;1.00;;;;;;4961351;28;20465;-71
2023/06/27 03:37:16;;;;;;;10.20;4.00;;;16.30;1.00;;;;;;4955391;28;21164;-72
2023/06/27 03:39:44;;;;;;;8.07;4.80;;;16.40;1.00;;;;;;4958549;28;20464;-70
2023/06/27 03:42:11;;;;;;;4.90;4.33;;;16.40;1.00;;;;;;4962929;28;20472;-72
2023/06/27 03:44:38;;;;;;;8.53;5.10;;;16.30;1.00;;;;;;4958024;28;20555;-71
2023/06/27 03:47:06;;;;;;;7.63;4.30;;;16.30;1.00;;;;;;4962554;28;20547;-71
2023/06/27 03:49:33;;;;;;;7.70;4.60;;;16.30;1.00;;;;;;4964574;28;20999;-71
2023/06/27 03:52:01;;;;;;;12.47;5.50;;;16.30;1.00;;;;;;4963176;28;20471;-72
2023/06/27 03:54:27;;;;;;;8.70;4.77;;;16.20;1.00;;;;;;4962554;28;20536;-74
2023/06/27 03:56:56;;;;;;;8.30;4.70;;;16.30;1.00;;;;;;4961377;28;20939;-72
2023/06/27 03:59:23;;;;;;;11.27;4.60;;;16.30;1.00;;;;;;4958808;28;20527;-72
2023/06/27 04:01:51;;;;;;;6.90;4.73;;;16.30;1.00;;;;;;4955901;28;20484;-72
2023/06/27 04:04:18;;;;;;;6.67;4.40;;;16.30;1.00;;;;;;4957916;28;20523;-71
2023/06/27 04:06:45;;;;;;;9.37;4.23;;;16.30;1.00;;;;;;4960520;28;20646;-71
2023/06/27 04:09:13;;;;;;;10.20;5.40;;;16.30;1.00;;;;;;4950355;28;20456;-71
2023/06/27 04:11:40;;;;;;;10.10;5.30;;;16.30;1.00;;;;;;4949762;28;20476;-71
2023/06/27 04:14:08;;;;;;;8.60;5.30;;;16.30;1.00;;;;;;4965580;28;20551;-77
2023/06/27 04:16:35;;;;;;;9.00;4.57;;;16.30;1.00;;;;;;4966206;28;20487;-76
2023/06/27 04:19:02;;;;;;;6.90;4.17;;;16.30;1.00;;;;;;4964355;28;20470;-76
2023/06/27 04:21:29;;;;;;;7.77;4.67;;;16.40;1.00;;;;;;4964771;28;20591;-77
2023/06/27 04:23:56;;;;;;;7.60;4.40;;;16.40;1.00;;;;;;4963478;28;21036;-77
2023/06/27 04:26:25;;;;;;;6.00;4.30;;;16.40;1.00;;;;;;4968808;28;20472;-77
2023/06/27 04:28:52;;;;;;;5.90;3.80;;;16.40;1.00;;;;;;4958328;28;20468;-76
2023/06/27 04:31:21;;;;;;;9.53;5.30;;;16.40;1.00;;;;;;4956568;28;20610;-76
2023/06/27 04:33:48;;;;;;;7.80;4.33;;;16.40;1.00;;;;;;4962596;28;20464;-77
2023/06/27 04:36:20;;;;;;;4.77;4.20;;;16.40;1.00;;;;;;4963491;28;20476;-77
2023/06/27 04:38:48;;;;;;;4.80;4.30;;;16.40;1.00;;;;;;4955780;28;20464;-77
2023/06/27 04:41:15;;;;;;;5.23;3.90;;;16.40;1.00;;;;;;4959585;28;20544;-76
2023/06/27 04:43:42;;;;;;;8.37;4.80;;;16.40;1.00;;;;;;4973028;28;20487;-77
2023/06/27 04:46:09;;;;;;;6.80;4.53;;;16.50;1.00;;;;;;4970953;28;20466;-77
2023/06/27 04:48:37;;;;;;;10.07;4.10;;;16.60;1.00;;;;;;4971028;28;20460;-77
2023/06/27 04:51:04;;;;;;;11.57;4.70;;;16.60;1.00;;;;;;4971630;28;21329;-78
2023/06/27 04:53:32;;;;;;;11.97;4.67;;;16.60;1.00;;;;;;4969506;28;20476;-75
2023/06/27 04:55:59;;;;;;;5.60;4.20;;;16.70;1.00;;;;;;4971057;28;20456;-78
2023/06/27 04:58:26;;;;;;;12.03;5.87;;;16.70;1.00;;;;;;4969769;28;20925;-76
2023/06/27 05:00:53;;;;;;;11.57;5.80;;;16.80;1.00;;;;;;4967054;28;20513;-76
2023/06/27 05:03:21;;;;;;;7.33;4.57;;;16.80;1.00;;;;;;4967212;28;20553;-77
2023/06/27 05:05:50;;;;;;;7.23;4.20;;;16.90;1.00;;;;;;4969912;28;20479;-77
2023/06/27 05:08:18;;;;;;;6.33;4.20;;;17.00;1.00;;;;;;4965962;28;20930;-76
2023/06/27 05:10:45;;;;;;;7.43;4.40;;;17.00;1.00;;;;;;4960747;28;20539;-76
2023/06/27 05:13:12;;;;;;;8.50;4.53;;;16.90;1.00;;;;;;4966273;28;20464;-75
2023/06/27 05:15:39;;;;;;;6.80;3.60;;;17.00;1.00;;;;;;4966164;28;20844;-76
2023/06/27 05:18:30;;;;;;;14.67;4.33;;;17.00;1.00;;;;;;4967530;28;22507;-76
2023/06/27 05:20:58;;;;;;;7.40;3.80;;;17.10;1.00;;;;;;4955148;28;20497;-76
2023/06/27 05:23:25;;;;;;;8.43;5.00;;;17.10;1.00;;;;;;4967319;28;20888;-77
2023/06/27 05:25:52;;;;;;;8.33;4.27;;;17.20;1.00;;;;;;4964228;28;20459;-76
2023/06/27 05:28:19;;;;;;;7.17;4.23;;;17.20;1.00;;;;;;4967644;28;20888;-76
2023/06/27 05:30:46;;;;;;;6.33;4.70;;;17.20;1.00;;;;;;4942666;28;22636;-76
2023/06/27 05:33:15;;;;;;;10.10;4.33;;;17.30;1.00;;;;;;4952943;28;20575;-75
2023/06/27 05:35:42;;;;;;;7.80;3.60;;;17.40;1.00;;;;;;4962362;28;20467;-78
2023/06/27 05:38:10;;;;;;;8.27;4.47;;;17.50;1.00;;;;;;4954029;28;20472;-76
2023/06/27 05:40:37;;;;;;;10.77;4.70;;;17.50;1.00;;;;;;4954222;28;20567;-76
2023/06/27 05:43:05;;;;;;;10.00;4.67;;;17.50;1.00;;;;;;4963713;28;20460;-75
2023/06/27 05:45:32;;;;;;;9.07;4.70;;;17.50;1.00;;;;;;4966506;28;20485;-75
2023/06/27 05:47:59;;;;;;;6.67;3.70;;;17.60;1.00;;;;;;4969167;28;20448;-76
2023/06/27 05:50:27;;;;;;;8.60;4.47;;;17.80;1.00;;;;;;4970251;28;20530;-76
2023/06/27 05:52:54;;;;;;;7.13;4.17;;;17.80;1.00;;;;;;4967734;28;20564;-75
2023/06/27 05:55:23;;;;;;;14.40;4.87;;;17.80;1.00;;;;;;4968720;28;20615;-76
2023/06/27 05:57:50;;;;;;;10.17;4.17;;;18.00;1.00;;;;;;4965728;28;20456;-76
2023/06/27 06:00:18;;;;;;;6.57;4.13;;;18.00;1.00;;;;;;4966626;28;20473;-76
2023/06/27 06:02:47;;;;;;;7.67;4.97;;;18.20;1.00;;;;;;4962557;28;20437;-76
2023/06/27 06:05:17;;;;;;;10.53;4.87;;;18.30;1.00;;;;;;4969016;28;20850;-76
2023/06/27 06:07:45;;;;;;;10.47;4.07;;;18.30;1.00;;;;;;4970226;28;20469;-74
2023/06/27 06:10:13;;;;;;;7.73;3.27;;;18.40;1.00;;;;;;4969914;28;20472;-76
2023/06/27 06:12:43;;;;;;;9.00;4.20;;;18.50;1.00;;;;;;4968446;28;20537;-76
2023/06/27 06:15:10;;;;;;;6.90;3.90;;;18.50;1.00;;;;;;4964770;28;20457;-74
2023/06/27 06:17:37;;;;;;;6.50;3.90;;;18.60;1.00;;;;;;4970500;28;20484;-74
2023/06/27 06:20:09;;;;;;;6.20;3.90;;;18.70;1.00;;;;;;4970817;28;20886;-75
2023/06/27 06:22:36;;;;;;;9.40;4.20;;;18.70;1.00;;;;;;4973917;28;21009;-75
2023/06/27 06:25:04;;;;;;;10.93;3.37;;;18.80;1.00;;;;;;4971516;28;20565;-75
2023/06/27 06:27:31;;;;;;;6.10;2.97;;;18.80;1.00;;;;;;4969651;28;20436;-72
2023/06/27 06:29:59;;;;;;;7.33;3.73;;;18.70;1.00;;;;;;4969025;28;21008;-72
2023/06/27 06:32:26;;;;;;;9.43;3.90;;;18.80;1.00;;;;;;4974557;28;20513;-76
2023/06/27 06:34:53;;;;;;;7.00;3.87;;;18.70;1.00;;;;;;4972849;28;20596;-74
2023/06/27 06:37:20;;;;;;;9.10;4.43;;;18.70;1.00;;;;;;4969272;28;20553;-74
2023/06/27 06:39:47;;;;;;;7.27;3.07;;;18.80;1.00;;;;;;4965089;28;20921;-74
2023/06/27 06:42:14;;;;;;;6.73;3.70;;;19.00;1.00;;;;;;4971487;28;20526;-75
2023/06/27 06:44:40;;;;;;;6.33;3.23;;;19.20;1.00;;;;;;4968261;28;20454;-74
2023/06/27 06:47:09;;;;;;;5.60;3.00;;;19.40;1.00;;;;;;4967950;28;23213;-74
2023/06/27 06:49:36;;;;;;;8.60;3.73;;;19.50;1.00;;;;;;4959312;28;20500;-72
2023/06/27 06:52:03;;;;;;;7.27;3.30;;;19.40;1.00;;;;;;4960628;28;20457;-74
2023/06/27 06:54:30;;;;;;;4.30;3.00;;;19.30;1.00;;;;;;4966038;28;21851;-73
2023/06/27 06:56:57;;;;;;;8.53;3.60;;;19.30;1.00;;;;;;4962789;28;20920;-76
2023/06/27 06:59:24;;;;;;;9.70;3.60;;;19.20;1.00;;;;;;4968141;28;20621;-74
2023/06/27 07:01:51;;;;;;;9.83;3.00;;;19.30;1.00;;;;;;4951362;28;20566;-73
2023/06/27 07:04:19;;;;;;;8.20;3.83;;;19.20;1.00;;;;;;4948519;28;20534;-72
2023/06/27 07:06:48;;;;;;;8.67;4.00;;;19.40;1.00;;;;;;4946878;28;20462;-72
2023/06/27 07:09:15;;;;;;;8.67;4.30;;;19.50;1.00;;;;;;4950766;28;20471;-74
2023/06/27 07:11:43;;;;;;;6.40;3.20;;;19.70;1.00;;;;;;4946151;28;20465;-75
2023/06/27 07:14:10;;;;;;;10.87;3.60;;;19.80;1.00;;;;;;4958572;28;20459;-72
2023/06/27 07:16:38;;;;;;;7.63;3.43;;;19.60;1.00;;;;;;4954329;28;20474;-72
2023/06/27 07:19:06;;;;;;;8.60;3.70;;;19.50;1.00;;;;;;4950458;28;20502;-73
2023/06/27 07:21:35;;;;;;;7.10;6.47;;;19.30;1.00;;;;;;4951417;28;20498;-72
2023/06/27 07:24:02;;;;;;;3.30;2.63;;;19.30;1.00;;;;;;4959696;28;20550;-77
2023/06/27 07:26:29;;;;;;;6.93;2.70;;;19.30;1.00;;;;;;4957078;28;20462;-75
2023/06/27 07:28:56;;;;;;;8.27;2.37;;;19.30;1.00;;;;;;4957218;28;20484;-73
2023/06/27 07:31:23;;;;;;;6.87;2.73;;;19.40;1.00;;;;;;4958882;28;20557;-72
2023/06/27 07:33:49;;;;;;;7.97;2.60;;;19.50;1.00;;;;;;4952103;28;20561;-73
2023/06/27 07:36:17;;;;;;;4.37;3.03;;;19.70;1.00;;;;;;4956712;28;20549;-73
2023/06/27 07:38:45;;;;;;;4.50;2.30;;;20.00;1.00;;;;;;4952181;28;20550;-73
2023/06/27 07:41:12;;;;;;;5.83;2.20;;;20.30;1.00;;;;;;4956074;28;20452;-74
2023/06/27 07:43:39;;;;;;;5.97;2.33;;;20.40;1.00;;;;;;4958798;28;20480;-71
2023/06/27 07:46:06;;;;;;;7.80;3.50;;;20.40;1.00;;;;;;4955646;28;20598;-75
2023/06/27 07:48:33;;;;;;;5.13;2.13;;;20.50;1.00;;;;;;4956069;28;20562;-74
2023/06/27 07:51:00;;;;;;;4.80;2.80;;;20.50;1.00;;;;;;4954583;28;20469;-73
2023/06/27 07:53:27;;;;;;;4.80;2.20;;;20.60;1.00;;;;;;4957759;28;20482;-73
2023/06/27 07:55:55;;;;;;;3.43;2.07;;;20.70;1.00;;;;;;4958281;28;20548;-73
2023/06/27 07:58:22;;;;;;;4.87;2.30;;;20.70;1.00;;;;;;4969227;28;20475;-72
2023/06/27 08:00:49;;;;;;;6.97;3.27;;;20.40;1.00;;;;;;4961454;28;20455;-73
2023/06/27 08:03:16;;;;;;;6.27;2.50;;;19.60;1.00;;;;;;4960937;28;20498;-75
2023/06/27 08:05:43;;;;;;;6.60;2.10;;;18.90;1.00;;;;;;4965564;28;20563;-76
2023/06/27 08:08:10;;;;;;;5.17;2.50;;;18.20;1.00;;;;;;4962802;28;20560;-74
2023/06/27 08:10:37;;;;;;;5.00;2.70;;;17.70;1.00;;;;;;4963058;28;20488;-74
2023/06/27 08:13:05;;;;;;;5.53;2.63;;;17.40;1.00;;;;;;4964033;28;20513;-73
2023/06/27 08:15:32;;;;;;;6.90;2.97;;;17.30;1.00;;;;;;4965977;28;20986;-73
2023/06/27 08:18:00;;;;;;;4.40;2.53;;;17.30;1.00;;;;;;4966656;28;20524;-75
2023/06/27 08:20:28;;;;;;;4.60;2.67;;;17.30;1.00;;;;;;4964189;28;20424;-73
2023/06/27 08:22:54;;;;;;;3.27;2.27;;;17.50;1.00;;;;;;4964401;28;20351;-73
2023/06/27 08:25:21;;;;;;;5.53;2.43;;;17.70;1.00;;;;;;4965533;28;20560;-74
2023/06/27 08:27:48;;;;;;;6.97;2.63;;;17.90;1.00;;;;;;4962234;28;20510;-74
2023/06/27 08:30:16;;;;;;;5.13;2.17;;;18.10;1.00;;;;;;4964115;28;20501;-73
2023/06/27 08:32:43;;;;;;;5.57;2.57;;;18.20;1.00;;;;;;4970163;28;20492;-75
2023/06/27 08:35:10;;;;;;;2.47;1.90;;;18.20;1.00;;;;;;4965467;28;20462;-74
2023/06/27 08:37:37;;;;;;;3.50;2.10;;;18.50;1.00;;;;;;4970558;28;20477;-74
2023/06/27 08:40:06;;;;;;;4.80;2.30;;;18.80;1.00;;;;;;4970630;28;20484;-74
2023/06/27 08:42:32;;;;;;;2.20;1.80;;;19.30;1.00;;;;;;4967382;28;20530;-75
2023/06/27 08:44:59;;;;;;;4.20;2.27;;;19.70;1.00;;;;;;4961481;28;21247;-74
2023/06/27 08:47:30;;;;;;;4.90;2.70;;;20.00;1.00;;;;;;4968776;28;20554;-73
2023/06/27 08:50:04;;;;;;;4.57;2.10;;;20.30;1.00;;;;;;4962015;28;20456;-72
2023/06/27 08:52:37;;;;;;;4.63;1.73;;;20.30;1.00;;;;;;4961735;28;20466;-73
2023/06/27 08:55:07;;;;;;;3.37;2.30;;;20.00;1.00;;;;;;4963995;28;20443;-73
2023/06/27 08:57:37;;;;;;;2.10;1.90;;;19.90;1.00;;;;;;4964229;28;20933;-73
2023/06/27 09:00:12;;;;;;;8.37;2.40;;;20.00;1.00;;;;;;4960999;28;21058;-79
2023/06/27 09:02:44;;;;;;;5.03;2.03;;;20.00;1.00;;;;;;4964006;28;20547;-75
2023/06/27 09:05:13;;;;;;;4.03;2.07;;;20.20;1.00;;;;;;4961937;28;20477;-75
2023/06/27 09:07:40;;;;;;;3.53;1.83;;;20.40;1.00;;;;;;4962932;28;20479;-77
2023/06/27 09:10:09;;;;;;;3.17;2.23;;;20.30;1.00;;;;;;4966760;28;20849;-73
2023/06/27 09:12:38;;;;;;;6.83;2.50;;;20.10;1.00;;;;;;4963997;28;20589;-74
2023/06/27 09:15:06;;;;;;;3.20;2.00;;;20.00;1.00;;;;;;4964697;28;20477;-76
2023/06/27 09:17:33;;;;;;;2.43;1.73;;;20.40;1.00;;;;;;4965836;28;20449;-73
2023/06/27 09:20:02;;;;;;;3.83;1.87;;;20.80;1.00;;;;;;4962935;28;21059;-73
2023/06/27 09:22:30;;;;;;;7.47;3.23;;;21.20;1.00;;;;;;4963597;28;20561;-75
2023/06/27 09:25:10;;;;;;;2.17;1.97;;;21.50;1.00;;;;;;4971145;28;20935;-75
2023/06/27 09:27:38;;;;;;;4.80;2.20;;;21.70;1.00;;;;;;4971778;28;20472;-73
2023/06/27 09:30:07;;;;;;;7.70;3.23;;;21.60;1.00;;;;;;4975565;28;21041;-73
2023/06/27 09:32:34;;;;;;;6.53;1.97;;;20.60;1.00;;;;;;4970799;28;20562;-75
2023/06/27 09:35:03;;;;;;;2.80;1.70;;;18.90;1.00;;;;;;4972842;28;20883;-74
2023/06/27 09:37:32;;;;;;;3.00;1.70;;;17.60;1.00;;;;;;4975521;28;20551;-76
2023/06/27 09:39:59;;;;;;;2.33;1.73;;;16.70;1.00;;;;;;4974169;28;20456;-74
2023/06/27 09:42:26;;;;;;;3.10;1.90;;;16.20;1.00;;;;;;4968081;28;20510;-74
2023/06/27 09:44:52;;;;;;;4.10;1.90;;;15.90;1.00;;;;;;4967329;28;20791;-75
2023/06/27 09:47:25;;;;;;;5.47;2.27;;;15.90;1.00;;;;;;4967757;28;20476;-74
2023/06/27 09:49:54;;;;;;;3.30;2.10;;;16.20;1.00;;;;;;4963367;28;21379;-76
2023/06/27 09:52:22;;;;;;;3.53;2.20;;;17.20;1.00;;;;;;4965090;28;20495;-74
2023/06/27 09:54:49;;;;;;;2.40;2.00;;;18.00;1.00;;;;;;4962674;28;20564;-74
2023/06/27 09:57:21;;;;;;;3.17;2.33;;;19.10;1.00;;;;;;4964739;28;20617;-74
2023/06/27 09:59:48;;;;;;;3.03;1.93;;;20.30;1.00;;;;;;4963709;28;20455;-74
2023/06/27 10:02:15;;;;;;;4.20;2.10;;;21.70;1.00;;;;;;4962428;28;20467;-75
2023/06/27 10:04:42;;;;;;;2.77;2.57;;;23.00;1.00;;;;;;4965010;28;20569;-73
2023/06/27 10:07:13;;;;;;;4.13;2.07;;;24.00;1.00;;;;;;4962728;28;20496;-73
2023/06/27 10:09:42;;;;;;;3.33;2.30;;;24.90;1.00;;;;;;4963872;28;20467;-74
2023/06/27 10:12:10;;;;;;;2.37;1.90;;;25.50;1.00;;;;;;4954188;28;20952;-74
2023/06/27 10:14:37;;;;;;;2.93;2.00;;;26.00;1.00;;;;;;4959333;28;20520;-75
2023/06/27 10:17:06;;;;;;;4.80;2.00;;;26.80;1.00;;;;;;4956414;28;20623;-74
2023/06/27 10:19:35;;;;;;;4.63;2.50;;;27.50;1.00;;;;;;4953473;28;20497;-74
2023/06/27 10:22:04;;;;;;;2.70;2.30;;;28.40;1.00;;;;;;4954042;28;20672;-73
2023/06/27 10:24:33;;;;;;;3.33;1.77;;;28.90;1.00;;;;;;4952829;28;20992;-73
2023/06/27 10:27:02;;;;;;;4.90;2.13;;;29.20;1.00;;;;;;4961414;28;20476;-76
2023/06/27 10:29:32;;;;;;;3.00;2.00;;;29.60;1.00;;;;;;4964825;28;20471;-77
2023/06/27 10:32:00;;;;;;;2.70;1.90;;;29.80;1.00;;;;;;4964435;28;20467;-76
2023/06/27 10:34:28;;;;;;;2.93;1.67;;;28.40;1.00;;;;;;4964327;28;20493;-75
2023/06/27 10:36:59;;;;;;;2.73;2.07;;;26.60;1.00;;;;;;4963460;28;20657;-76
2023/06/27 10:39:28;;;;;;;2.90;2.17;;;25.10;1.00;;;;;;4965366;28;20469;-76
2023/06/27 10:42:04;;;;;;;12.53;10.87;;;23.90;1.00;;;;;;4960045;28;21096;-75
2023/06/27 10:44:35;;;;;;;7.90;4.93;;;22.30;1.00;;;;;;4951184;28;20454;-75
2023/06/27 10:47:29;;;;;;;3.00;2.13;;;21.20;1.00;;;;;;4959870;28;20470;-75
2023/06/27 10:50:05;;;;;;;2.70;2.43;;;20.10;1.00;;;;;;4961242;28;21655;-76
2023/06/27 10:52:32;;;;;;;3.07;2.47;;;19.40;1.00;;;;;;4963934;28;20477;-75
2023/06/27 10:55:27;;;;;;;3.60;2.03;;;18.60;1.00;;;;;;4963287;28;20540;-76
2023/06/27 10:58:06;;;;;;;5.03;2.93;;;17.70;1.00;;;;;;4968192;28;20888;-76
2023/06/27 11:00:34;;;;;;;3.23;1.87;;;16.80;1.00;;;;;;4963853;28;21550;-76
2023/06/27 11:03:05;;;;;;;5.93;1.47;;;16.30;1.00;;;;;;4964910;28;20429;-75
2023/06/27 11:05:46;;;;;;;6.57;3.03;;;16.10;1.00;;;;;;4964066;28;20551;-77
2023/06/27 11:08:18;;;;;;;4.23;3.07;;;16.00;1.00;;;;;;4963429;28;20450;-76
2023/06/27 11:11:02;;;;;;;6.27;5.50;;;16.10;1.00;;;;;;4971412;28;20460;-76
2023/06/27 11:13:33;;;;;;;4.80;2.30;;;16.40;1.00;;;;;;4966199;28;20467;-75
2023/06/27 11:16:01;;;;;;;4.33;2.90;;;16.50;1.00;;;;;;4967818;28;20461;-75
2023/06/27 11:18:29;;;;;;;5.20;4.67;;;16.70;1.00;;;;;;4969746;28;20869;-76
2023/06/27 11:20:56;;;;;;;4.43;3.50;;;17.10;1.00;;;;;;4969489;28;21026;-76
2023/06/27 11:23:25;;;;;;;3.60;2.40;;;18.30;1.00;;;;;;4970768;28;20468;-76
2023/06/27 11:25:53;;;;;;;2.67;1.57;;;19.80;1.00;;;;;;4969119;28;20835;-76
2023/06/27 11:28:21;;;;;;;3.20;1.80;;;21.70;1.00;;;;;;4971701;28;20929;-75
2023/06/27 11:30:50;;;;;;;2.20;1.90;;;23.70;1.00;;;;;;4965609;28;20509;-77
2023/06/27 11:33:19;;;;;;;2.70;2.00;;;25.40;1.00;;;;;;4962440;28;20576;-73
2023/06/27 11:35:47;;;;;;;1.70;1.53;;;26.70;1.00;;;;;;4959321;28;20573;-73
2023/06/27 11:38:14;;;;;;;2.27;1.70;;;27.70;1.00;;;;;;4949829;28;20450;-73
2023/06/27 11:40:49;;;;;;;2.83;1.43;;;28.90;1.00;;;;;;4952657;28;20487;-73
2023/06/27 11:43:18;;;;;;;2.20;1.20;;;29.50;1.00;;;;;;4958167;28;20463;-74
2023/06/27 11:45:51;;;;;;;3.40;1.60;;;30.30;1.00;;;;;;4960399;28;20483;-73
2023/06/27 11:48:18;;;;;;;3.80;1.40;;;31.10;1.00;;;;;;4961722;28;20485;-74
2023/06/27 11:50:56;;;;;;;2.20;1.33;;;31.30;1.00;;;;;;4964523;28;20516;-74
2023/06/27 11:53:25;;;;;;;3.23;1.30;;;31.50;1.00;;;;;;4959867;28;20823;-75
2023/06/27 11:55:52;;;;;;;3.13;1.60;;;31.60;1.00;;;;;;4954486;28;20536;-75
2023/06/27 11:58:29;;;;;;;2.53;1.90;;;32.00;1.00;;;;;;4953712;28;20473;-74
2023/06/27 12:00:57;;;;;;;2.80;1.57;;;32.60;1.00;;;;;;4951003;28;20864;-74
2023/06/27 12:03:29;;;;;;;2.47;1.87;;;33.50;1.00;;;;;;4951362;28;20499;-74
2023/06/27 12:05:58;;;;;;;6.73;4.30;;;34.30;1.00;;;;;;4950528;28;20468;-74
2023/06/27 12:08:33;;;;;;;1.70;1.40;;;34.90;1.00;;;;;;4954806;28;20710;-76
2023/06/27 12:11:02;;;;;;;1.93;1.80;;;35.00;1.00;;;;;;4959373;28;20501;-77
2023/06/27 12:13:34;;;;;;;1.93;1.37;;;35.80;1.00;;;;;;4961368;28;20488;-73
2023/06/27 12:16:03;;;;;;;2.47;1.30;;;35.40;1.00;;;;;;4957374;28;20456;-74
2023/06/27 12:18:31;;;;;;;1.70;1.17;;;34.70;1.00;;;;;;4961223;28;20478;-74
2023/06/27 12:20:59;;;;;;;2.40;1.83;;;34.50;1.00;;;;;;4959255;28;21036;-76
2023/06/27 12:23:28;;;;;;;2.90;2.00;;;32.40;1.00;;;;;;4964428;28;20547;-73
2023/06/27 12:25:55;;;;;;;1.93;1.10;;;29.70;1.00;;;;;;4959650;28;20506;-74
2023/06/27 12:28:24;;;;;;;2.20;1.10;;;27.40;1.00;;;;;;4960316;28;20489;-74
2023/06/27 12:30:51;;;;;;;1.80;1.20;;;25.90;1.00;;;;;;4946006;28;20455;-74
2023/06/27 12:33:19;;;;;;;4.53;1.20;;;24.70;1.00;;;;;;4950330;28;20488;-73
2023/06/27 12:35:47;;;;;;;1.30;1.17;;;23.70;1.00;;;;;;4957063;28;20468;-74
2023/06/27 12:38:14;;;;;;;4.40;1.30;;;23.00;1.00;;;;;;4959503;28;20937;-75
2023/06/27 12:40:41;;;;;;;1.73;1.10;;;22.50;1.00;;;;;;4949855;28;21011;-74
2023/06/27 12:43:08;;;;;;;2.80;1.47;;;22.10;1.00;;;;;;4961031;28;20848;-74
2023/06/27 12:45:34;;;;;;;2.00;1.50;;;21.70;1.00;;;;;;4955602;28;20457;-74
2023/06/27 12:48:02;;;;;;;1.87;1.40;;;21.60;1.00;;;;;;4964166;28;20510;-74
2023/06/27 12:50:30;;;;;;;2.73;1.40;;;21.60;1.00;;;;;;4959768;28;21420;-73
2023/06/27 12:52:57;;;;;;;2.70;1.77;;;21.70;1.00;;;;;;4956068;28;20621;-74
2023/06/27 12:55:24;;;;;;;3.60;1.50;;;21.80;1.00;;;;;;4956203;28;20479;-75
2023/06/27 12:57:51;;;;;;;3.60;1.87;;;21.90;1.00;;;;;;4949086;28;20497;-73
2023/06/27 13:00:21;;;;;;;1.87;1.30;;;22.00;1.00;;;;;;4965879;28;20597;-76
2023/06/27 13:02:49;;;;;;;2.33;1.53;;;21.90;1.00;;;;;;4963258;28;20942;-75